LLBGLCLK [ELY2433]

Details From LLBG - Tel Aviv Ben Gurion
To LCLK - Larnaca
Flight Number ELY2433
Tags decoded
Created
Modified
Stats Distance 210 nm / 389 km
Max Altitude 0 ft / 0 m
Waypoints 8
Social Downloads 5
Likes 0
Share VATSIM

Download

Looking for another format? Having issues loading an existing format? Contact us
Advertisement - Login to hide

Notes

Requested: LLBG DEENA PURLA GITLA VELOX B17 LCA LCLK

Route

LLBG DEENA PURLA GITLA VELOX B17 LCA LCLK

ID Type Via Altitude Latitude Longitude Leg Dist Tot Dist Heading (true) Name
O LLBG APT - 0 ft / 0 m 32.01147˚ 34.88506˚ - 0 nm - Tel Aviv Ben Gurion
DEENA FIX - 0 ft / 0 m 32.02255˚ 34.63995˚ 12 nm 12 nm 273° / 273° -
PURLA FIX - 0 ft / 0 m 32.04033˚ 34.22911˚ 20 nm 33 nm 273° / 273° -
GITLA FIX - 0 ft / 0 m 32.32284˚ 34.04854˚ 19 nm 52 nm 332° / 332° -
VELOX FIX - 0 ft / 0 m 33.81667˚ 34.08333˚ 89 nm 142 nm 1° / 1° -
BOSIS FIX B17 (AWY-LO) 0 ft / 0 m 34.62333˚ 33.74000˚ 51 nm 193 nm 341° / 341° -
LCA VOR B17 (AWY-LO) 0 ft / 0 m 34.87333˚ 33.62667˚ 16 nm 209 nm 340° / 340° LARNACA VOR-DME
O LCLK APT - 0 ft / 0 m 34.87512˚ 33.62483˚ 0 nm 209 nm 320° / 320° Larnaca

Altitude Profile

Advertisement - Login to hide

Weather


0- 5 10 15 20 25 30 35+ Temperature / ° C

Clouds and Precipitation
Forecast for 2017-12-13 06:00 UTC. Updated 18 minutes ago

Ground ~20,000 ft ~40,000 ft Winds

LLBG

Details ICAO LLBG (TLV)
Name Tel Aviv Ben Gurion
Region Israel
Timezone Asia/Jerusalem (UTC+2.0)
Stats Elevation 135 ft / 41 m (AMSL)
Location 32.011468° 34.885059°
Runways 3
Magnetic Variation 4.687° E

METAR

LLBG 130320Z 17005KT 9999 FEW019 SCT050 16/07 Q1018 BECMG BKN019

Decode

TAF

TAF TAF LLBG 122322Z 1300/1324 17005KT CAVOK PROB40 1303/1307 6000 SCT012 BECMG 1307/1309 28012KT 9999 SCT025 BECMG 1315/1317 14004KT TX21/1312Z TN13/1304Z

Decode

Departure Runways

ID Width Length Bearing (true) Bearing (mag) Surface Threshold Offset Overrun Length
03 148 ft / 45 m 5,792 ft / 1,765 m 28.88° 24.19° Asphalt 0 ft / 0 m 216 ft / 66 m
08 148 ft / 45 m 12,017 ft / 3,663 m 79.72° 75.03° Asphalt 0 ft / 0 m 295 ft / 90 m
12 148 ft / 45 m 10,279 ft / 3,133 m 121.54° 116.85° Asphalt 0 ft / 0 m 328 ft / 100 m
21 148 ft / 45 m 5,792 ft / 1,765 m 208.88° 204.19° Asphalt 0 ft / 0 m 216 ft / 66 m
26 148 ft / 45 m 12,017 ft / 3,663 m 259.74° 255.05° Asphalt 1,969 ft / 600 m 205 ft / 62 m
30 148 ft / 45 m 10,279 ft / 3,133 m 301.56° 296.87° Asphalt 246 ft / 75 m 347 ft / 106 m

LCLK

Details ICAO LCLK (LCA)
Name Larnaca
Region Cyprus
Timezone Asia/Nicosia (UTC+2.0)
Stats Elevation 8 ft / 2 m (AMSL)
Location 34.875115° 33.624832°
Runways 1
Magnetic Variation 4.990° E

METAR

LCLK 130330Z 31006KT CAVOK 12/08 Q1017 NOSIG

Decode

TAF

TAF LCLK 122330Z 1300/1324 33009KT 9999 FEW030= TAF LCPH 122330Z 1300/1324 02007KT 9999 BECMG 1308/1311 32015KT BECMG 1316/1319 02007KT

Decode

Destination Runways

ID Width Length Bearing (true) Bearing (mag) Surface Threshold Offset Overrun Length
04 148 ft / 45 m 9,771 ft / 2,978 m 45.15° 40.16° Asphalt 0 ft / 0 m 210 ft / 64 m
22 148 ft / 45 m 9,771 ft / 2,978 m 225.17° 220.18° Asphalt 575 ft / 175 m 0 ft / 0 m

Approach Navaids

Runway Type Ident Frequency Range Bearing (true) Bearing (mag) Slope Elevation
22 Localiser ILC 110.30 MHz 18 nm / 33 km 225.17° 220.18° - 8 ft / 2 m (AMSL)
22 Glidescope ILC 110.30 MHz 10 nm / 19 km 225.16° 220.17° 2.75° 24 ft / 7 m (AMSL)
22 DME ILC 110.30 MHz 18 nm / 33 km - - - 20 ft / 6 m (AMSL)

Popular Alternatives